createdAt,value
2019-02-22T00:01:54.686Z,51.57
2019-02-22T00:04:25.364Z,49.43
2019-02-22T00:06:55.549Z,48.27
2019-02-22T00:09:25.742Z,54.50
2019-02-22T00:11:55.989Z,56.93
2019-02-22T00:14:26.237Z,49.97
2019-02-22T00:16:56.427Z,56.03
2019-02-22T00:19:26.762Z,53.53
2019-02-22T00:21:56.936Z,51.27
2019-02-22T00:24:27.139Z,57.23
2019-02-22T00:26:57.335Z,55.83
2019-02-22T00:29:27.609Z,58.40
2019-02-22T00:31:57.792Z,51.93
2019-02-22T00:34:28.132Z,56.20
2019-02-22T00:36:58.502Z,62.10
2019-02-22T00:39:28.699Z,56.47
2019-02-22T00:41:59.947Z,53.50
2019-02-22T00:44:30.207Z,56.50
2019-02-22T00:47:00.430Z,56.13
2019-02-22T00:49:30.859Z,63.77
2019-02-22T00:52:01.074Z,52.10
2019-02-22T00:54:31.244Z,52.20
2019-02-22T00:57:01.470Z,57.37
2019-02-22T00:59:31.811Z,58.07
2019-02-22T01:02:02.003Z,55.23
2019-02-22T01:04:34.827Z,52.23
2019-02-22T01:07:05.257Z,51.73
2019-02-22T01:09:35.501Z,52.33
2019-02-22T01:12:05.696Z,52.13
2019-02-22T01:14:35.901Z,47.07
2019-02-22T01:17:06.113Z,52.93
2019-02-22T01:19:36.310Z,46.00
2019-02-22T01:22:06.736Z,50.50
2019-02-22T01:24:36.922Z,46.30
2019-02-22T01:27:07.162Z,48.13
2019-02-22T01:29:37.403Z,41.10
2019-02-22T01:32:07.684Z,35.67
2019-02-22T01:34:37.903Z,38.87
2019-02-22T01:37:08.132Z,38.57
2019-02-22T01:39:38.427Z,38.73
2019-02-22T01:42:08.777Z,40.80
2019-02-22T01:44:40.632Z,36.73
2019-02-22T01:47:10.862Z,34.73
2019-02-22T01:49:41.073Z,35.80
2019-02-22T01:52:11.290Z,35.40
2019-02-22T01:54:41.516Z,34.60
2019-02-22T01:57:11.811Z,33.77
2019-02-22T01:59:42.179Z,35.60
2019-02-22T02:02:12.386Z,33.27
2019-02-22T02:04:42.939Z,30.67
2019-02-22T02:07:13.217Z,29.53
2019-02-22T02:09:43.415Z,32.63
2019-02-22T02:12:13.639Z,33.07
2019-02-22T02:14:43.825Z,28.67
2019-02-22T02:17:14.260Z,26.90
2019-02-22T02:19:44.449Z,25.07
2019-02-22T02:22:14.644Z,25.57
2019-02-22T02:24:44.922Z,23.03
2019-02-22T02:27:15.227Z,22.13
2019-02-22T02:29:45.416Z,21.53
2019-02-22T02:32:15.785Z,22.53
2019-02-22T02:34:46.942Z,22.03
2019-02-22T02:37:17.146Z,22.33
2019-02-22T02:39:47.377Z,22.87
2019-02-22T02:42:17.592Z,22.67
2019-02-22T02:44:47.811Z,21.77
2019-02-22T02:47:17.982Z,19.50
2019-02-22T02:49:48.236Z,20.80
2019-02-22T02:52:20.607Z,21.97
2019-02-22T02:54:51.778Z,20.97
2019-02-22T02:57:21.982Z,20.27
2019-02-22T02:59:52.238Z,19.97
2019-02-22T03:02:30.438Z,20.07
2019-02-22T03:05:00.959Z,21.17
2019-02-22T03:07:59.024Z,21.50
2019-02-22T03:10:31.458Z,19.80
2019-02-22T03:13:01.264Z,17.47
2019-02-22T03:15:31.437Z,20.17
2019-02-22T03:18:01.664Z,20.93
2019-02-22T03:20:31.980Z,18.87
2019-02-22T03:23:02.264Z,19.70
2019-02-22T03:25:32.471Z,18.50
2019-02-22T03:28:03.785Z,17.60
2019-02-22T03:30:34.003Z,17.23
2019-02-22T03:33:04.164Z,15.97
2019-02-22T03:35:34.407Z,16.43
2019-02-22T03:38:05.936Z,16.73
2019-02-22T03:40:36.299Z,18.17
2019-02-22T03:43:06.495Z,17.83
2019-02-22T03:45:36.761Z,13.97
2019-02-22T03:48:06.960Z,14.20
2019-02-22T03:50:37.140Z,13.67
2019-02-22T03:53:24.763Z,12.50
2019-02-22T03:55:56.086Z,10.57
2019-02-22T03:58:26.477Z,10.27
2019-02-22T04:00:56.664Z,10.57
2019-02-22T04:03:27.044Z,10.97
2019-02-22T04:05:57.740Z,11.20
2019-02-22T04:08:27.939Z,12.80
2019-02-22T04:10:58.119Z,9.27
2019-02-22T04:13:28.318Z,9.17
2019-02-22T04:15:58.522Z,9.73
2019-02-22T04:18:29.776Z,7.87
2019-02-22T04:21:00.273Z,10.17
2019-02-22T04:23:30.449Z,7.60
2019-02-22T04:26:00.641Z,6.83
2019-02-22T04:28:30.896Z,11.27
2019-02-22T04:31:01.160Z,7.50
2019-02-22T04:33:31.345Z,8.17
2019-02-22T04:36:01.754Z,7.00
2019-02-22T04:38:31.936Z,8.93
2019-02-22T04:41:02.272Z,9.60
2019-02-22T04:43:32.489Z,6.47
2019-02-22T04:46:02.678Z,7.87
2019-02-22T04:48:32.898Z,6.37
2019-02-22T04:51:03.073Z,6.80
2019-02-22T04:53:33.271Z,7.23
2019-02-22T04:56:03.595Z,9.00
2019-02-22T04:58:33.833Z,8.53
2019-02-22T05:01:04.971Z,8.03
2019-02-22T05:03:35.121Z,6.47
2019-02-22T05:06:05.530Z,8.47
2019-02-22T05:08:35.828Z,7.60
2019-02-22T05:11:06.147Z,8.70
2019-02-22T05:13:36.435Z,7.03
2019-02-22T05:16:06.805Z,7.37
2019-02-22T05:18:37.045Z,9.00
2019-02-22T05:21:07.188Z,7.57
2019-02-22T05:23:37.452Z,8.80
2019-02-22T05:26:07.641Z,9.77
2019-02-22T05:28:37.837Z,7.80
2019-02-22T05:31:08.073Z,7.77
2019-02-22T05:33:38.275Z,6.97
2019-02-22T05:36:08.655Z,9.87
2019-02-22T05:38:38.824Z,7.70
2019-02-22T05:41:09.113Z,6.80
2019-02-22T05:43:39.295Z,7.33
2019-02-22T05:46:09.502Z,8.03
2019-02-22T05:48:39.889Z,6.87
2019-02-22T05:51:10.122Z,8.43
2019-02-22T05:53:40.323Z,9.07
2019-02-22T05:56:10.785Z,8.97
2019-02-22T05:58:40.937Z,8.67
2019-02-22T06:01:11.125Z,7.47
2019-02-22T06:03:41.345Z,7.93
2019-02-22T06:06:11.919Z,7.17
2019-02-22T06:08:42.121Z,7.00
2019-02-22T06:11:12.392Z,7.27
2019-02-22T06:13:42.598Z,7.00
2019-02-22T06:16:14.011Z,6.97
2019-02-22T06:18:58.866Z,7.83
2019-02-22T06:21:29.869Z,7.93
2019-02-22T06:24:02.731Z,6.47
2019-02-22T06:26:31.988Z,6.27
2019-02-22T06:29:02.257Z,5.30
2019-02-22T06:31:32.451Z,8.10
2019-02-22T06:34:02.801Z,5.50
2019-02-22T06:36:33.379Z,6.83
2019-02-22T06:39:04.997Z,6.20
2019-02-22T06:41:35.319Z,5.90
2019-02-22T06:44:06.155Z,6.97
2019-02-22T06:46:36.705Z,6.30
2019-02-22T06:49:06.949Z,6.20
2019-02-22T06:51:37.257Z,6.57
2019-02-22T06:54:15.003Z,8.73
2019-02-22T06:56:47.334Z,7.70
2019-02-22T06:59:17.974Z,7.33
2019-02-22T07:01:50.178Z,8.77
2019-02-22T07:04:20.772Z,9.43
2019-02-22T07:06:51.173Z,11.63
2019-02-22T07:09:22.654Z,11.93
2019-02-22T07:11:57.491Z,10.10
2019-02-22T07:14:27.943Z,10.97
2019-02-22T07:16:58.719Z,11.17
2019-02-22T07:19:29.445Z,12.13
2019-02-22T07:21:59.643Z,12.10
2019-02-22T07:24:30.403Z,11.77
2019-02-22T07:27:01.266Z,11.70
2019-02-22T07:29:31.481Z,8.73
2019-02-22T07:32:05.944Z,10.57
2019-02-22T07:34:34.092Z,11.13
2019-02-22T07:37:05.331Z,8.53
2019-02-22T07:39:37.205Z,8.30
2019-02-22T07:42:12.200Z,11.60
2019-02-22T07:44:42.719Z,9.17
2019-02-22T07:47:12.972Z,9.33
2019-02-22T07:49:45.147Z,6.73
2019-02-22T07:52:15.588Z,2.67
2019-02-22T07:54:51.377Z,2.70
2019-02-22T07:57:32.316Z,3.73
2019-02-22T08:00:10.814Z,7.03
2019-02-22T08:02:49.635Z,2.73
2019-02-22T08:05:26.857Z,5.67
2019-02-22T08:08:08.577Z,2.17
2019-02-22T08:10:47.159Z,5.37
2019-02-22T08:13:25.894Z,4.20
2019-02-22T08:16:02.657Z,3.97
2019-02-22T08:18:40.411Z,3.03
2019-02-22T08:21:22.835Z,4.20
2019-02-22T08:24:01.498Z,4.20
2019-02-22T08:26:41.745Z,4.60
2019-02-22T08:29:19.953Z,4.50
2019-02-22T08:31:52.306Z,4.83
2019-02-22T08:34:22.580Z,5.73
2019-02-22T08:36:52.923Z,5.10
2019-02-22T08:39:24.060Z,5.87
2019-02-22T08:41:54.468Z,6.77
2019-02-22T08:44:24.757Z,6.00
2019-02-22T08:46:55.018Z,6.63
2019-02-22T08:49:25.394Z,6.27
2019-02-22T08:51:55.606Z,6.53
2019-02-22T08:54:25.940Z,7.20
2019-02-22T08:56:56.299Z,7.13
2019-02-22T08:59:26.447Z,7.40
2019-02-22T09:01:56.739Z,7.47
2019-02-22T09:04:26.934Z,7.40
2019-02-22T09:06:57.080Z,9.40
2019-02-22T09:09:27.612Z,8.67
2019-02-22T09:11:57.991Z,10.10
2019-02-22T09:14:28.402Z,11.53
2019-02-22T09:16:58.672Z,10.97
2019-02-22T09:19:29.032Z,12.13
2019-02-22T09:22:08.830Z,18.47
2019-02-22T09:24:47.458Z,11.33
2019-02-22T09:27:26.373Z,15.47
2019-02-22T09:30:11.547Z,12.50
2019-02-22T09:32:50.419Z,15.97
2019-02-22T09:35:27.819Z,14.83
2019-02-22T09:38:05.341Z,18.00
2019-02-22T09:40:44.737Z,19.50
2019-02-22T09:43:24.747Z,21.63
2019-02-22T09:46:07.818Z,22.77
2019-02-22T09:48:48.137Z,25.40
2019-02-22T09:51:27.369Z,19.07
2019-02-22T09:54:04.758Z,19.77
2019-02-22T09:56:43.860Z,21.30
2019-02-22T09:59:20.937Z,19.13
2019-02-22T10:01:58.746Z,18.70
2019-02-22T10:04:38.575Z,18.10
2019-02-22T10:07:24.920Z,20.23
2019-02-22T10:10:06.840Z,20.47
2019-02-22T10:12:45.449Z,21.93
2019-02-22T10:15:23.799Z,22.27
2019-02-22T10:18:02.100Z,22.03
2019-02-22T10:20:40.118Z,24.47
2019-02-22T10:23:18.637Z,23.77
2019-02-22T10:25:59.265Z,22.70
2019-02-22T10:28:37.615Z,22.33
2019-02-22T10:31:16.190Z,23.67
2019-02-22T10:33:54.550Z,19.10
2019-02-22T10:36:33.091Z,18.93
2019-02-22T10:39:13.477Z,19.67
2019-02-22T10:41:54.504Z,22.97
2019-02-22T10:44:34.499Z,24.13
2019-02-22T10:47:11.973Z,23.37
2019-02-22T10:49:50.939Z,27.20
2019-02-22T10:52:26.381Z,29.10
2019-02-22T10:55:05.098Z,33.43
2019-02-22T10:57:42.285Z,35.23
2019-02-22T11:00:21.299Z,33.43
2019-02-22T11:03:00.381Z,35.97
2019-02-22T11:05:39.321Z,31.17
2019-02-22T11:08:16.678Z,34.77
2019-02-22T11:10:55.786Z,39.27
2019-02-22T11:13:34.313Z,34.43
2019-02-22T11:16:13.815Z,32.23
2019-02-22T11:18:53.195Z,34.47
2019-02-22T11:21:34.693Z,35.73
2019-02-22T11:24:10.737Z,33.67
2019-02-22T11:26:40.989Z,29.00
2019-02-22T11:29:11.275Z,27.63
2019-02-22T11:31:41.485Z,26.00
2019-02-22T11:34:11.919Z,26.50
2019-02-22T11:36:43.078Z,26.33
2019-02-22T11:39:13.406Z,25.00
2019-02-22T11:41:43.650Z,31.93
2019-02-22T11:44:13.998Z,25.03
2019-02-22T11:46:44.229Z,25.63
2019-02-22T11:49:14.532Z,27.57
2019-02-22T11:51:44.839Z,30.03
2019-02-22T11:54:15.234Z,25.90
2019-02-22T11:56:45.532Z,27.07
2019-02-22T11:59:17.476Z,28.70
2019-02-22T12:01:48.772Z,22.90
2019-02-22T12:04:19.075Z,23.30
2019-02-22T12:06:50.055Z,25.83
2019-02-22T12:09:20.263Z,24.27
2019-02-22T12:11:51.033Z,27.13
2019-02-22T12:14:27.319Z,25.60
2019-02-22T12:17:04.147Z,28.87
2019-02-22T12:19:40.656Z,29.97
2019-02-22T12:22:21.431Z,30.37
2019-02-22T12:24:59.369Z,30.30
2019-02-22T12:27:39.175Z,33.47
2019-02-22T12:30:18.689Z,29.80
2019-02-22T12:32:55.013Z,23.97
2019-02-22T12:35:32.948Z,21.43
2019-02-22T12:38:11.073Z,21.80
2019-02-22T12:40:50.621Z,21.77
2019-02-22T12:43:29.792Z,20.83
2019-02-22T12:46:07.266Z,17.53
2019-02-22T12:48:47.038Z,19.10
2019-02-22T12:51:25.124Z,14.47
2019-02-22T12:54:05.165Z,13.37
2019-02-22T12:56:57.093Z,15.30
2019-02-22T12:59:22.183Z,18.20
2019-02-22T13:02:00.911Z,14.27
2019-02-22T13:04:39.982Z,10.87
2019-02-22T13:07:16.986Z,13.77
2019-02-22T13:09:58.223Z,16.67
2019-02-22T13:12:30.863Z,11.77
2019-02-22T13:15:14.234Z,27.57
2019-02-22T13:17:56.979Z,12.07
2019-02-22T13:20:34.945Z,12.00
2019-02-22T13:23:13.153Z,10.53
2019-02-22T13:25:53.483Z,12.67
2019-02-22T13:28:36.030Z,10.43
2019-02-22T13:31:29.447Z,9.60
2019-02-22T13:34:01.495Z,9.80
2019-02-22T13:36:40.936Z,12.20
2019-02-22T13:39:18.977Z,13.20
2019-02-22T13:42:01.635Z,10.07
2019-02-22T13:44:39.963Z,11.83
2019-02-22T13:47:19.874Z,7.33
2019-02-22T13:49:59.681Z,10.63
2019-02-22T13:52:37.929Z,10.47
2019-02-22T13:55:16.521Z,8.30
2019-02-22T13:57:56.184Z,12.30
2019-02-22T14:00:33.129Z,13.90
2019-02-22T14:03:13.165Z,10.60
2019-02-22T14:05:52.834Z,11.73
2019-02-22T14:08:30.370Z,16.33
2019-02-22T14:11:12.011Z,15.20
2019-02-22T14:13:53.455Z,15.87
2019-02-22T14:16:31.396Z,13.47
2019-02-22T14:19:10.791Z,15.07
2019-02-22T14:21:49.024Z,13.23
2019-02-22T14:24:35.795Z,13.80
2019-02-22T14:27:15.913Z,15.13
2019-02-22T14:29:57.942Z,16.47
2019-02-22T14:32:34.785Z,12.57
2019-02-22T14:35:14.807Z,15.47
2019-02-22T14:38:00.344Z,12.13
2019-02-22T14:40:42.306Z,18.90
2019-02-22T14:43:19.968Z,15.70
2019-02-22T14:45:58.465Z,10.97
2019-02-22T14:48:37.138Z,12.73
2019-02-22T14:51:15.240Z,12.27
2019-02-22T14:53:52.053Z,12.10
2019-02-22T14:56:29.408Z,14.83
2019-02-22T14:59:07.761Z,11.13
2019-02-22T15:01:48.378Z,13.53
2019-02-22T15:04:24.752Z,12.07
2019-02-22T15:06:59.942Z,16.10
2019-02-22T15:09:36.367Z,14.50
2019-02-22T15:12:07.390Z,12.20
2019-02-22T15:14:37.765Z,11.37
2019-02-22T15:17:21.251Z,13.63
2019-02-22T15:19:53.867Z,13.60
2019-02-22T15:22:24.090Z,15.20
2019-02-22T15:24:54.281Z,16.93
2019-02-22T15:27:24.511Z,15.97
2019-02-22T15:29:54.809Z,12.23
2019-02-22T15:32:25.013Z,15.77
2019-02-22T15:34:55.271Z,15.37
2019-02-22T15:37:25.957Z,15.43
2019-02-22T15:39:56.158Z,18.47
2019-02-22T15:42:26.538Z,15.17
2019-02-22T15:44:58.063Z,15.30
2019-02-22T15:47:28.240Z,11.90
2019-02-22T15:49:58.406Z,14.83
2019-02-22T15:52:28.961Z,14.83
2019-02-22T15:54:59.332Z,11.00
2019-02-22T15:57:29.610Z,10.60
2019-02-22T15:59:59.845Z,11.97
2019-02-22T16:02:31.504Z,17.17
2019-02-22T16:05:32.992Z,13.07
2019-02-22T16:08:03.994Z,15.27
2019-02-22T16:10:36.068Z,16.87
2019-02-22T16:13:06.264Z,20.40
2019-02-22T16:15:41.299Z,15.10
2019-02-22T16:18:13.122Z,13.53
2019-02-22T16:21:00.056Z,21.93
2019-02-22T16:23:30.987Z,15.47
2019-02-22T16:26:01.804Z,17.70
2019-02-22T16:28:32.080Z,13.63
2019-02-22T16:31:02.285Z,13.13
2019-02-22T16:33:32.524Z,20.93
2019-02-22T16:36:03.195Z,15.17
2019-02-22T16:38:33.464Z,15.77
2019-02-22T16:41:03.726Z,19.90
2019-02-22T16:43:33.983Z,13.67
2019-02-22T16:46:04.687Z,18.00
2019-02-22T16:48:35.150Z,14.77
2019-02-22T16:51:05.391Z,19.07
2019-02-22T16:53:35.836Z,13.53
2019-02-22T16:56:06.137Z,14.53
2019-02-22T16:58:36.352Z,15.73
2019-02-22T17:01:07.553Z,16.93
2019-02-22T17:03:37.767Z,16.90
2019-02-22T17:06:08.129Z,17.93
2019-02-22T17:08:38.417Z,17.13
2019-02-22T17:11:08.640Z,14.63
2019-02-22T17:13:38.860Z,14.23
2019-02-22T17:16:09.358Z,16.27
2019-02-22T17:18:39.792Z,20.27
2019-02-22T17:21:14.827Z,14.97
2019-02-22T17:23:45.020Z,22.43
2019-02-22T17:26:16.831Z,17.73
2019-02-22T17:28:47.199Z,16.13
2019-02-22T17:31:17.405Z,22.43
2019-02-22T17:33:48.759Z,17.37
2019-02-22T17:36:26.395Z,15.90
2019-02-22T17:38:51.063Z,17.77
2019-02-22T17:41:21.308Z,11.37
2019-02-22T17:43:51.972Z,16.87
2019-02-22T17:46:23.154Z,19.80
2019-02-22T17:48:53.437Z,15.00
2019-02-22T17:51:25.229Z,19.87
2019-02-22T17:53:55.405Z,18.53
2019-02-22T17:56:25.661Z,14.80
2019-02-22T17:58:57.557Z,15.47
2019-02-22T18:01:27.767Z,17.87
2019-02-22T18:03:58.130Z,14.30
2019-02-22T18:06:28.341Z,15.30
2019-02-22T18:08:58.602Z,13.07
2019-02-22T18:11:29.851Z,16.07
2019-02-22T18:14:01.119Z,18.13
2019-02-22T18:16:31.602Z,14.33
2019-02-22T18:19:05.597Z,18.87
2019-02-22T18:21:35.909Z,12.27
2019-02-22T18:24:06.100Z,14.27
2019-02-22T18:26:37.745Z,19.57
2019-02-22T18:29:08.086Z,13.33
2019-02-22T18:31:38.355Z,16.20
2019-02-22T18:34:08.558Z,14.73
2019-02-22T18:36:38.838Z,19.93
2019-02-22T18:39:09.556Z,14.23
2019-02-22T18:41:39.923Z,18.17
2019-02-22T18:44:10.141Z,15.50
2019-02-22T18:46:40.421Z,13.47
2019-02-22T18:49:10.782Z,15.63
2019-02-22T18:51:41.034Z,12.43
2019-02-22T18:54:11.242Z,13.33
2019-02-22T18:56:41.534Z,14.37
2019-02-22T18:59:11.820Z,14.67
2019-02-22T19:01:42.069Z,13.53
2019-02-22T19:04:13.358Z,15.33
2019-02-22T19:06:43.571Z,17.10
2019-02-22T19:09:13.975Z,14.30
2019-02-22T19:11:44.351Z,12.57
2019-02-22T19:14:14.659Z,14.27
2019-02-22T19:16:45.163Z,14.67
2019-02-22T19:19:15.405Z,13.40
2019-02-22T19:21:45.934Z,14.33
2019-02-22T19:24:17.240Z,14.47
2019-02-22T19:26:48.457Z,12.20
2019-02-22T19:29:18.667Z,13.27
2019-02-22T19:31:49.263Z,12.60
2019-02-22T19:34:19.480Z,12.17
2019-02-22T19:36:49.830Z,14.87
2019-02-22T19:39:20.070Z,14.00
2019-02-22T19:41:50.427Z,11.97
2019-02-22T19:44:20.611Z,11.97
2019-02-22T19:46:50.903Z,12.67
2019-02-22T19:49:21.160Z,20.23
2019-02-22T19:51:51.451Z,12.97
2019-02-22T19:54:21.693Z,11.67
2019-02-22T19:56:52.124Z,10.43
2019-02-22T19:59:22.390Z,9.23
2019-02-22T20:01:52.686Z,12.47
2019-02-22T20:04:22.993Z,11.23
2019-02-22T20:06:53.274Z,10.90
2019-02-22T20:09:23.479Z,10.97
2019-02-22T20:11:53.905Z,9.97
2019-02-22T20:14:24.132Z,11.00
2019-02-22T20:16:55.554Z,13.07
2019-02-22T20:19:25.832Z,11.53
2019-02-22T20:21:56.167Z,11.47
2019-02-22T20:24:26.589Z,11.27
2019-02-22T20:26:56.834Z,9.90
2019-02-22T20:29:27.114Z,11.57
2019-02-22T20:31:57.414Z,12.10
2019-02-22T20:34:27.680Z,12.13
2019-02-22T20:36:58.067Z,10.73
2019-02-22T20:39:28.339Z,13.53
2019-02-22T20:41:58.676Z,11.37
2019-02-22T20:44:28.969Z,11.00
2019-02-22T20:46:59.290Z,10.83
2019-02-22T20:49:29.558Z,14.10
2019-02-22T20:51:59.864Z,11.80
2019-02-22T20:54:30.178Z,9.97
2019-02-22T20:57:00.454Z,11.43
2019-02-22T20:59:30.653Z,11.67
2019-02-22T21:02:01.000Z,12.37
2019-02-22T21:04:31.354Z,12.90
2019-02-22T21:07:01.592Z,9.43
2019-02-22T21:09:31.863Z,16.87
2019-02-22T21:12:02.140Z,14.83
2019-02-22T21:14:32.405Z,16.63
2019-02-22T21:17:03.186Z,13.47
2019-02-22T21:19:33.470Z,14.73
2019-02-22T21:22:03.780Z,13.40
2019-02-22T21:24:34.063Z,17.27
2019-02-22T21:27:04.251Z,11.50
2019-02-22T21:29:34.437Z,9.70
2019-02-22T21:32:04.677Z,11.90
2019-02-22T21:34:34.955Z,12.07
2019-02-22T21:37:05.763Z,10.80
2019-02-22T21:39:38.417Z,12.93
2019-02-22T21:42:19.654Z,10.63
2019-02-22T21:44:40.808Z,11.00
2019-02-22T21:47:11.351Z,11.43
2019-02-22T21:49:41.550Z,12.13
2019-02-22T21:52:11.781Z,10.83
2019-02-22T21:54:42.096Z,11.97
2019-02-22T21:57:12.312Z,12.17
2019-02-22T21:59:42.950Z,23.40
2019-02-22T22:02:14.094Z,11.00
2019-02-22T22:04:44.297Z,10.23
2019-02-22T22:07:14.562Z,10.83
2019-02-22T22:09:44.871Z,12.30
2019-02-22T22:12:16.038Z,14.20
2019-02-22T22:14:46.254Z,11.80
2019-02-22T22:17:16.820Z,15.40
2019-02-22T22:19:47.268Z,19.87
2019-02-22T22:22:17.494Z,19.20
2019-02-22T22:24:47.906Z,22.53
2019-02-22T22:27:18.176Z,18.97
2019-02-22T22:29:48.416Z,14.97
2019-02-22T22:32:18.662Z,14.43
2019-02-22T22:34:48.862Z,13.70
2019-02-22T22:37:19.386Z,17.23
2019-02-22T22:39:49.728Z,14.97
2019-02-22T22:42:19.940Z,10.67
2019-02-22T22:44:50.143Z,16.07
2019-02-22T22:47:20.412Z,17.60
2019-02-22T22:49:50.614Z,12.73
2019-02-22T22:52:20.907Z,13.13
2019-02-22T22:54:51.273Z,16.27
2019-02-22T22:57:21.607Z,19.63
2019-02-22T22:59:52.771Z,16.97
2019-02-22T23:02:23.544Z,17.47
2019-02-22T23:04:53.823Z,11.60
2019-02-22T23:07:24.119Z,9.67
2019-02-22T23:09:54.367Z,12.73
2019-02-22T23:12:25.859Z,11.47
2019-02-22T23:14:56.174Z,11.93
2019-02-22T23:17:26.596Z,11.00
2019-02-22T23:19:56.903Z,10.27
2019-02-22T23:22:27.126Z,13.70
2019-02-22T23:24:57.334Z,11.63
2019-02-22T23:27:27.727Z,12.37
2019-02-22T23:29:58.119Z,12.30
2019-02-22T23:32:28.392Z,13.13
2019-02-22T23:34:58.595Z,10.17
2019-02-22T23:37:28.877Z,13.43
2019-02-22T23:40:00.149Z,14.67
2019-02-22T23:42:30.548Z,12.37
2019-02-22T23:45:00.951Z,10.63
2019-02-22T23:47:32.319Z,17.97
2019-02-22T23:50:02.551Z,14.10
2019-02-22T23:52:33.974Z,11.57
2019-02-22T23:55:05.473Z,13.57
2019-02-22T23:57:35.651Z,16.20
